createdAt,value
2023-02-14T00:01:57.646Z,103159.47
2023-02-14T00:04:44.766Z,103158.25
2023-02-14T00:07:31.082Z,103163.81
2023-02-14T00:10:16.430Z,103158.28
2023-02-14T00:13:01.552Z,103158.09
2023-02-14T00:15:46.390Z,103156.00
2023-02-14T00:18:50.106Z,103154.41
2023-02-14T00:21:37.436Z,103157.06
2023-02-14T00:24:25.364Z,103156.88
2023-02-14T00:27:10.755Z,103162.16
2023-02-14T00:29:58.540Z,103154.97
2023-02-14T00:32:43.421Z,103158.19
2023-02-14T00:35:28.808Z,103160.41
2023-02-14T00:38:13.672Z,103151.97
2023-02-14T00:40:59.240Z,103153.63
2023-02-14T00:43:44.550Z,103160.47
2023-02-14T00:46:29.737Z,103154.56
2023-02-14T00:49:15.300Z,103160.75
2023-02-14T00:52:00.141Z,103163.13
2023-02-14T00:54:45.769Z,103164.75
2023-02-14T00:57:30.718Z,103169.06
2023-02-14T01:00:16.316Z,103166.28
2023-02-14T01:03:01.467Z,103167.34
2023-02-14T01:05:48.101Z,103157.16
2023-02-14T01:08:33.469Z,103162.38
2023-02-14T01:11:21.817Z,103162.16
2023-02-14T01:14:06.724Z,103157.69
2023-02-14T01:16:51.962Z,103149.50
2023-02-14T01:19:38.206Z,103155.31
2023-02-14T01:22:23.347Z,103151.94
2023-02-14T01:25:08.291Z,103147.28
2023-02-14T01:27:53.372Z,103148.88
2023-02-14T01:30:39.103Z,103135.53
2023-02-14T01:33:24.270Z,103144.44
2023-02-14T01:36:19.659Z,103140.69
2023-02-14T01:39:12.230Z,103143.84
2023-02-14T01:41:57.824Z,103143.97
2023-02-14T01:45:05.196Z,103143.69
2023-02-14T01:47:54.202Z,103146.28
2023-02-14T01:50:42.621Z,103140.38
2023-02-14T01:53:28.988Z,103143.84
2023-02-14T01:56:21.024Z,103136.84
2023-02-14T01:59:10.072Z,103131.47
2023-02-14T02:01:55.856Z,103136.34
2023-02-14T02:04:46.196Z,103131.47
2023-02-14T02:07:31.712Z,103127.66
2023-02-14T02:10:17.436Z,103124.19
2023-02-14T02:13:06.465Z,103131.25
2023-02-14T02:16:19.493Z,103129.75
2023-02-14T02:19:23.714Z,103128.28
2023-02-14T02:22:30.496Z,103126.78
2023-02-14T02:25:50.473Z,103121.88
2023-02-14T02:29:08.199Z,103120.13
2023-02-14T02:32:32.048Z,103125.06
2023-02-14T02:35:41.710Z,103127.88
2023-02-14T02:38:45.363Z,103125.22
2023-02-14T02:41:48.353Z,103120.25
2023-02-14T02:44:42.307Z,103120.19
2023-02-14T02:47:53.436Z,103109.09
2023-02-14T02:51:02.795Z,103111.22
2023-02-14T02:53:55.148Z,103103.31
2023-02-14T02:56:53.707Z,103103.09
2023-02-14T02:59:43.680Z,103104.69
2023-02-14T03:02:33.190Z,103097.88
2023-02-14T03:05:18.690Z,103098.28
2023-02-14T03:08:05.131Z,103088.78
2023-02-14T03:10:49.957Z,103093.16
2023-02-14T03:13:48.985Z,103095.56
2023-02-14T03:17:08.051Z,103089.06
2023-02-14T03:20:16.619Z,103089.63
2023-02-14T03:23:30.223Z,103084.56
2023-02-14T03:26:20.159Z,103091.50
2023-02-14T03:29:31.294Z,103087.91
2023-02-14T03:32:31.169Z,103091.50
2023-02-14T03:35:31.059Z,103080.41
2023-02-14T03:38:30.880Z,103081.09
2023-02-14T03:41:22.975Z,103080.06
2023-02-14T03:44:11.303Z,103076.53
2023-02-14T03:47:02.993Z,103075.94
2023-02-14T03:49:53.300Z,103071.78
2023-02-14T03:52:40.009Z,103063.56
2023-02-14T03:55:35.976Z,103063.06
2023-02-14T03:58:30.610Z,103058.28
2023-02-14T04:01:23.130Z,103060.53
2023-02-14T04:04:10.214Z,103062.56
2023-02-14T04:06:55.748Z,103062.56
2023-02-14T04:09:40.766Z,103068.88
2023-02-14T04:12:37.222Z,103065.81
2023-02-14T04:15:22.549Z,103070.44
2023-02-14T04:18:27.474Z,103071.19
2023-02-14T04:21:12.561Z,103069.75
2023-02-14T04:23:57.396Z,103060.13
2023-02-14T04:26:53.887Z,103060.94
2023-02-14T04:29:48.175Z,103060.81
2023-02-14T04:32:32.839Z,103058.91
2023-02-14T04:35:18.238Z,103055.38
2023-02-14T04:38:04.629Z,103051.84
2023-02-14T04:40:50.253Z,103049.50
2023-02-14T04:43:35.858Z,103050.22
2023-02-14T04:46:20.861Z,103045.03
2023-02-14T04:49:06.171Z,103049.00
2023-02-14T04:51:51.037Z,103045.66
2023-02-14T04:54:36.135Z,103039.31
2023-02-14T04:57:20.831Z,103047.28
2023-02-14T05:00:07.051Z,103050.34
2023-02-14T05:02:52.313Z,103043.69
2023-02-14T05:05:38.243Z,103041.91
2023-02-14T05:08:23.269Z,103039.75
2023-02-14T05:11:08.793Z,103030.41
2023-02-14T05:13:54.082Z,103027.94
2023-02-14T05:16:39.358Z,103034.59
2023-02-14T05:19:24.975Z,103037.53
2023-02-14T05:22:10.244Z,103036.91
2023-02-14T05:24:54.995Z,103037.28
2023-02-14T05:27:39.831Z,103029.47
2023-02-14T05:30:27.817Z,103029.84
2023-02-14T05:33:13.309Z,103030.31
2023-02-14T05:36:00.967Z,103024.16
2023-02-14T05:38:45.957Z,103022.63
2023-02-14T05:41:31.175Z,103020.88
2023-02-14T05:44:16.026Z,103025.84
2023-02-14T05:47:00.913Z,103018.97
2023-02-14T05:49:46.064Z,103018.28
2023-02-14T05:52:30.813Z,103015.94
2023-02-14T05:55:16.150Z,103016.94
2023-02-14T05:58:01.164Z,103024.84
2023-02-14T06:00:46.221Z,103016.88
2023-02-14T06:03:31.354Z,103025.50
2023-02-14T06:06:16.504Z,103024.84
2023-02-14T06:09:01.209Z,103025.22
2023-02-14T06:11:46.480Z,103026.50
2023-02-14T06:14:31.339Z,103029.19
2023-02-14T06:17:16.551Z,103028.91
2023-02-14T06:20:02.204Z,103033.31
2023-02-14T06:22:47.190Z,103036.50
2023-02-14T06:25:32.825Z,103029.44
2023-02-14T06:28:18.157Z,103032.34
2023-02-14T06:31:03.454Z,103036.09
2023-02-14T06:33:48.615Z,103036.09
2023-02-14T06:36:33.863Z,103044.72
2023-02-14T06:39:19.058Z,103039.56
2023-02-14T06:42:04.314Z,103042.34
2023-02-14T06:44:49.119Z,103043.44
2023-02-14T06:47:35.253Z,103034.94
2023-02-14T06:50:19.986Z,103038.00
2023-02-14T06:53:06.295Z,103041.41
2023-02-14T06:55:51.446Z,103038.00
2023-02-14T06:58:36.641Z,103038.06
2023-02-14T07:01:22.108Z,103039.22
2023-02-14T07:04:07.331Z,103040.03
2023-02-14T07:06:52.577Z,103036.06
2023-02-14T07:09:37.440Z,103041.50
2023-02-14T07:12:22.503Z,103030.84
2023-02-14T07:15:09.522Z,103036.16
2023-02-14T07:17:54.831Z,103041.41
2023-02-14T07:20:39.871Z,103046.16
2023-02-14T07:23:25.153Z,103048.31
2023-02-14T07:26:10.197Z,103057.19
2023-02-14T07:28:55.633Z,103052.59
2023-02-14T07:31:40.621Z,103044.66
2023-02-14T07:34:27.446Z,103049.34
2023-02-14T07:37:12.306Z,103053.47
2023-02-14T07:39:57.230Z,103055.16
2023-02-14T07:42:43.381Z,103056.78
2023-02-14T07:45:28.188Z,103045.50
2023-02-14T07:48:13.391Z,103049.34
2023-02-14T07:50:58.569Z,103048.25
2023-02-14T07:53:44.296Z,103039.97
2023-02-14T07:56:29.575Z,103043.09
2023-02-14T07:59:14.844Z,103051.16
2023-02-14T08:01:59.676Z,103045.16
2023-02-14T08:04:44.700Z,103051.28
2023-02-14T08:07:29.591Z,103045.00
2023-02-14T08:10:15.503Z,103051.13
2023-02-14T08:13:00.816Z,103045.81
2023-02-14T08:16:04.601Z,103037.06
2023-02-14T08:18:49.653Z,103048.19
2023-02-14T08:21:34.564Z,103040.53
2023-02-14T08:24:19.604Z,103039.72
2023-02-14T08:27:04.672Z,103039.59
2023-02-14T08:29:49.543Z,103033.91
2023-02-14T08:32:34.752Z,103031.34
2023-02-14T08:35:19.931Z,103037.09
2023-02-14T08:38:05.225Z,103041.47
2023-02-14T08:40:50.529Z,103044.75
2023-02-14T08:43:35.279Z,103050.34
2023-02-14T08:46:20.353Z,103052.66
2023-02-14T08:49:05.176Z,103045.94
2023-02-14T08:51:50.146Z,103048.72
2023-02-14T08:54:35.297Z,103053.69
2023-02-14T08:57:20.562Z,103051.31
2023-02-14T09:00:06.959Z,103052.56
2023-02-14T09:02:53.124Z,103044.19
2023-02-14T09:05:38.482Z,103046.38
2023-02-14T09:08:23.332Z,103035.75
2023-02-14T09:11:10.161Z,103040.84
2023-02-14T09:13:55.884Z,103047.13
2023-02-14T09:16:44.067Z,103041.72
2023-02-14T09:19:28.925Z,103042.69
2023-02-14T09:22:14.183Z,103036.72
2023-02-14T09:24:59.340Z,103037.81
2023-02-14T09:27:44.395Z,103032.19
2023-02-14T09:30:29.305Z,103036.22
2023-02-14T09:33:14.974Z,103033.72
2023-02-14T09:36:18.861Z,103028.44
2023-02-14T09:39:04.067Z,103033.84
2023-02-14T09:42:15.804Z,103035.53
2023-02-14T09:45:05.073Z,103034.19
2023-02-14T09:48:08.397Z,103028.50
2023-02-14T09:51:00.106Z,103028.69
2023-02-14T09:54:09.232Z,103025.28
2023-02-14T09:57:13.857Z,103029.97
2023-02-14T10:00:16.738Z,103028.72
2023-02-14T10:03:24.583Z,103021.69
2023-02-14T10:06:15.795Z,103024.25
2023-02-14T10:09:22.855Z,103025.63
2023-02-14T10:12:19.469Z,103019.13
2023-02-14T10:15:14.077Z,103016.72
2023-02-14T10:18:09.806Z,103025.41
2023-02-14T10:20:59.706Z,103018.72
2023-02-14T10:23:57.571Z,103016.59
2023-02-14T10:26:42.420Z,103021.72
2023-02-14T10:29:28.178Z,103020.75
2023-02-14T10:32:15.021Z,103016.78
2023-02-14T10:35:06.237Z,103009.50
2023-02-14T10:38:30.446Z,103011.03
2023-02-14T10:41:48.393Z,103015.19
2023-02-14T10:44:42.414Z,103005.56
2023-02-14T10:47:54.654Z,103009.53
2023-02-14T10:50:48.500Z,103003.78
2023-02-14T10:54:01.841Z,103009.31
2023-02-14T10:56:58.182Z,103010.59
2023-02-14T11:00:01.236Z,102997.34
2023-02-14T11:02:50.728Z,102987.53
2023-02-14T11:05:40.476Z,102996.47
2023-02-14T11:08:33.057Z,102989.56
2023-02-14T11:11:37.169Z,102976.25
2023-02-14T11:14:28.526Z,102977.38
2023-02-14T11:17:31.429Z,102982.59
2023-02-14T11:20:22.513Z,102982.91
2023-02-14T11:23:21.559Z,102978.94
2023-02-14T11:26:12.386Z,102977.84
2023-02-14T11:29:00.962Z,102979.56
2023-02-14T11:31:46.135Z,102974.16
2023-02-14T11:35:05.690Z,102964.97
2023-02-14T11:37:53.428Z,102959.97
2023-02-14T11:40:40.280Z,102965.69
2023-02-14T11:43:36.448Z,102953.78
2023-02-14T11:46:21.338Z,102952.38
2023-02-14T11:49:24.638Z,102942.38
2023-02-14T11:52:11.648Z,102937.28
2023-02-14T11:54:57.562Z,102931.31
2023-02-14T11:57:42.691Z,102923.53
2023-02-14T12:00:34.081Z,102924.69
2023-02-14T12:03:19.814Z,102917.09
2023-02-14T12:06:06.584Z,102918.22
2023-02-14T12:08:52.170Z,102920.19
2023-02-14T12:11:37.661Z,102921.19
2023-02-14T12:14:24.334Z,102916.00
2023-02-14T12:17:29.235Z,102909.41
2023-02-14T12:20:17.272Z,102907.78
2023-02-14T12:23:15.069Z,102905.63
2023-02-14T12:26:14.429Z,102902.47
2023-02-14T12:29:26.287Z,102902.16
2023-02-14T12:32:33.017Z,102891.53
2023-02-14T12:35:41.004Z,102892.13
2023-02-14T12:39:05.024Z,102888.63
2023-02-14T12:42:28.211Z,102880.88
2023-02-14T12:45:32.180Z,102882.72
2023-02-14T12:48:38.858Z,102872.31
2023-02-14T12:51:34.471Z,102860.22
2023-02-14T12:54:46.863Z,102853.31
2023-02-14T12:57:54.759Z,102839.59
2023-02-14T13:00:59.433Z,102853.69
2023-02-14T13:04:03.847Z,102852.13
2023-02-14T13:06:57.400Z,102849.13
2023-02-14T13:10:12.505Z,102852.63
2023-02-14T13:13:48.183Z,102843.03
2023-02-14T13:16:33.680Z,102840.44
2023-02-14T13:19:43.285Z,102835.25
2023-02-14T13:22:31.160Z,102831.84
2023-02-14T13:25:33.391Z,102824.03
2023-02-14T13:28:19.978Z,102826.56
2023-02-14T13:31:05.887Z,102823.13
2023-02-14T13:33:56.673Z,102818.78
2023-02-14T13:36:44.078Z,102824.97
2023-02-14T13:39:38.676Z,102816.09
2023-02-14T13:42:52.960Z,102817.56
2023-02-14T13:45:41.898Z,102817.88
2023-02-14T13:48:29.344Z,102817.97
2023-02-14T13:51:14.645Z,102817.16
2023-02-14T13:54:00.359Z,102814.41
2023-02-14T13:56:45.361Z,102818.81
2023-02-14T13:59:36.381Z,102816.53
2023-02-14T14:02:29.831Z,102820.41
2023-02-14T14:05:30.928Z,102817.25
2023-02-14T14:08:26.677Z,102813.56
2023-02-14T14:11:11.969Z,102814.22
2023-02-14T14:14:02.061Z,102814.09
2023-02-14T14:16:58.798Z,102808.75
2023-02-14T14:19:46.228Z,102805.13
2023-02-14T14:22:31.861Z,102803.50
2023-02-14T14:25:37.781Z,102804.88
2023-02-14T14:28:25.793Z,102798.63
2023-02-14T14:31:13.539Z,102806.25
2023-02-14T14:34:01.939Z,102793.09
2023-02-14T14:36:47.229Z,102793.22
2023-02-14T14:39:34.555Z,102793.75
2023-02-14T14:42:22.020Z,102790.94
2023-02-14T14:45:19.491Z,102798.72
2023-02-14T14:48:12.576Z,102789.81
2023-02-14T14:50:59.105Z,102782.91
2023-02-14T14:53:51.355Z,102779.25
2023-02-14T14:56:50.212Z,102786.91
2023-02-14T14:59:40.487Z,102772.03
2023-02-14T15:02:27.836Z,102782.31
2023-02-14T15:05:27.407Z,102785.84
2023-02-14T15:08:35.979Z,102783.06
2023-02-14T15:11:47.177Z,102777.03
2023-02-14T15:14:36.257Z,102775.25
2023-02-14T15:17:27.108Z,102776.91
2023-02-14T15:20:17.658Z,102772.41
2023-02-14T15:23:05.234Z,102769.47
2023-02-14T15:25:51.789Z,102765.06
2023-02-14T15:28:38.480Z,102764.94
2023-02-14T15:31:27.938Z,102759.34
2023-02-14T15:34:14.640Z,102762.09
2023-02-14T15:37:05.940Z,102750.50
2023-02-14T15:39:56.827Z,102752.34
2023-02-14T15:42:44.587Z,102740.69
2023-02-14T15:45:31.234Z,102740.44
2023-02-14T15:48:22.144Z,102752.22
2023-02-14T15:51:15.576Z,102746.13
2023-02-14T15:54:03.751Z,102746.63
2023-02-14T15:56:52.491Z,102746.53
2023-02-14T15:59:42.803Z,102741.53
2023-02-14T16:02:33.262Z,102741.97
2023-02-14T16:05:20.897Z,102746.88
2023-02-14T16:08:22.909Z,102739.81
2023-02-14T16:11:40.706Z,102747.06
2023-02-14T16:14:35.803Z,102754.16
2023-02-14T16:17:32.617Z,102750.97
2023-02-14T16:20:21.511Z,102761.13
2023-02-14T16:23:25.701Z,102754.59
2023-02-14T16:26:11.885Z,102755.28
2023-02-14T16:28:56.722Z,102750.69
2023-02-14T16:35:00.406Z,102748.66
2023-02-14T16:37:47.324Z,102756.03
2023-02-14T16:40:32.328Z,102752.56
2023-02-14T16:43:18.976Z,102762.72
2023-02-14T16:46:03.923Z,102756.31
2023-02-14T16:48:53.027Z,102751.94
2023-02-14T16:51:43.121Z,102754.22
2023-02-14T16:54:28.485Z,102756.94
2023-02-14T16:57:20.601Z,102745.66
2023-02-14T17:00:07.141Z,102754.03
2023-02-14T17:02:53.971Z,102746.50
2023-02-14T17:05:42.017Z,102751.25
2023-02-14T17:08:28.166Z,102741.63
2023-02-14T17:11:13.488Z,102747.50
2023-02-14T17:13:58.633Z,102750.56
2023-02-14T17:16:43.866Z,102749.91
2023-02-14T17:19:28.982Z,102736.81
2023-02-14T17:22:14.592Z,102732.25
2023-02-14T17:24:59.611Z,102740.09
2023-02-14T17:27:46.186Z,102738.81
2023-02-14T17:30:31.489Z,102744.47
2023-02-14T17:33:16.539Z,102733.94
2023-02-14T17:36:13.129Z,102736.06
2023-02-14T17:38:57.998Z,102736.72
2023-02-14T17:41:43.295Z,102738.31
2023-02-14T17:44:32.873Z,102735.50
2023-02-14T17:47:18.356Z,102737.97
2023-02-14T17:50:04.153Z,102733.31
2023-02-14T17:52:53.597Z,102732.72
2023-02-14T17:55:38.966Z,102727.81
2023-02-14T17:58:26.425Z,102725.88
2023-02-14T18:01:12.699Z,102717.50
2023-02-14T18:03:59.199Z,102717.97
2023-02-14T18:06:45.121Z,102717.38
2023-02-14T18:09:30.332Z,102712.53
2023-02-14T18:12:15.982Z,102714.78
2023-02-14T18:15:00.801Z,102713.91
2023-02-14T18:17:49.738Z,102699.28
2023-02-14T18:20:35.064Z,102698.13
2023-02-14T18:23:22.082Z,102693.28
2023-02-14T18:26:11.878Z,102693.19
2023-02-14T18:28:59.693Z,102688.63
2023-02-14T18:31:45.370Z,102687.25
2023-02-14T18:34:34.016Z,102689.56
2023-02-14T18:37:21.422Z,102688.09
2023-02-14T18:40:11.174Z,102688.09
2023-02-14T18:42:56.145Z,102687.06
2023-02-14T18:45:41.020Z,102684.63
2023-02-14T18:48:27.629Z,102681.16
2023-02-14T18:51:34.575Z,102682.69
2023-02-14T18:54:19.794Z,102686.41
2023-02-14T18:57:04.546Z,102686.03
2023-02-14T18:59:49.561Z,102686.34
2023-02-14T19:02:36.028Z,102679.16
2023-02-14T19:05:21.253Z,102694.13
2023-02-14T19:08:08.512Z,102681.34
2023-02-14T19:10:55.124Z,102676.44
2023-02-14T19:13:46.348Z,102677.38
2023-02-14T19:16:33.665Z,102672.94
2023-02-14T19:19:19.819Z,102669.16
2023-02-14T19:22:07.659Z,102680.41
2023-02-14T19:24:54.015Z,102660.22
2023-02-14T19:27:40.433Z,102655.03
2023-02-14T19:30:26.881Z,102656.00
2023-02-14T19:33:11.864Z,102658.31
2023-02-14T19:36:02.938Z,102659.69
2023-02-14T19:38:53.276Z,102657.66
2023-02-14T19:41:38.956Z,102653.31
2023-02-14T19:44:25.723Z,102654.50
2023-02-14T19:47:26.871Z,102642.41
2023-02-14T19:50:17.054Z,102644.88
2023-02-14T19:53:02.512Z,102649.41
2023-02-14T19:55:54.175Z,102650.16
2023-02-14T19:58:45.190Z,102646.38
2023-02-14T20:01:33.374Z,102639.31
2023-02-14T20:04:27.758Z,102646.47
2023-02-14T20:07:16.045Z,102637.50
2023-02-14T20:10:01.476Z,102634.25
2023-02-14T20:12:46.773Z,102635.75
2023-02-14T20:15:35.129Z,102629.00
2023-02-14T20:18:20.417Z,102630.34
2023-02-14T20:21:05.545Z,102628.00
2023-02-14T20:23:52.735Z,102626.41
2023-02-14T20:26:43.065Z,102617.13
2023-02-14T20:29:32.412Z,102619.84
2023-02-14T20:32:19.015Z,102622.75
2023-02-14T20:35:06.184Z,102619.31
2023-02-14T20:37:52.415Z,102610.16
2023-02-14T20:40:39.952Z,102613.38
2023-02-14T20:43:26.306Z,102612.25
2023-02-14T20:46:14.495Z,102605.69
2023-02-14T20:48:59.856Z,102595.97
2023-02-14T20:51:47.953Z,102601.78
2023-02-14T20:54:41.975Z,102601.56
2023-02-14T20:57:30.748Z,102595.69
2023-02-14T21:00:20.085Z,102595.00
2023-02-14T21:03:06.527Z,102584.41
2023-02-14T21:05:51.522Z,102593.84
2023-02-14T21:08:37.383Z,102580.25
2023-02-14T21:11:24.181Z,102579.09
2023-02-14T21:14:12.281Z,102587.13
2023-02-14T21:16:57.445Z,102574.09
2023-02-14T21:19:42.872Z,102580.41
2023-02-14T21:22:27.856Z,102576.66
2023-02-14T21:25:15.712Z,102572.97
2023-02-14T21:28:01.296Z,102575.22
2023-02-14T21:30:46.362Z,102575.00
2023-02-14T21:33:35.640Z,102573.13
2023-02-14T21:36:22.891Z,102571.75
2023-02-14T21:39:09.643Z,102573.78
2023-02-14T21:41:56.224Z,102564.78
2023-02-14T21:44:59.726Z,102573.75
2023-02-14T21:48:04.982Z,102562.88
2023-02-14T21:50:49.977Z,102559.66
2023-02-14T21:53:35.119Z,102565.41
2023-02-14T21:56:22.062Z,102562.38
2023-02-14T21:59:07.501Z,102562.97
2023-02-14T22:01:53.439Z,102566.53
2023-02-14T22:04:40.805Z,102558.47
2023-02-14T22:07:29.093Z,102565.22
2023-02-14T22:10:13.964Z,102565.75
2023-02-14T22:12:58.626Z,102564.63
2023-02-14T22:15:43.468Z,102566.31
2023-02-14T22:18:28.948Z,102564.03
2023-02-14T22:21:17.698Z,102560.72
2023-02-14T22:24:03.802Z,102566.78
2023-02-14T22:26:48.907Z,102561.19
2023-02-14T22:29:33.937Z,102560.13
2023-02-14T22:32:20.210Z,102560.59
2023-02-14T22:35:05.884Z,102552.91
2023-02-14T22:37:51.023Z,102554.50
2023-02-14T22:40:36.285Z,102554.56
2023-02-14T22:43:22.414Z,102555.69
2023-02-14T22:46:10.249Z,102543.19
2023-02-14T22:48:56.354Z,102544.97
2023-02-14T22:51:42.157Z,102545.00
2023-02-14T22:54:27.337Z,102543.47
2023-02-14T22:57:12.051Z,102549.25
2023-02-14T22:59:57.920Z,102544.09
2023-02-14T23:02:42.706Z,102536.91
2023-02-14T23:05:27.680Z,102538.25
2023-02-14T23:08:12.637Z,102527.72
2023-02-14T23:10:57.446Z,102535.69
2023-02-14T23:14:01.860Z,102540.84
2023-02-14T23:17:05.673Z,102538.56
2023-02-14T23:20:09.435Z,102542.44
2023-02-14T23:22:54.580Z,102543.28
2023-02-14T23:25:43.396Z,102549.91
2023-02-14T23:28:28.301Z,102546.28
2023-02-14T23:31:13.231Z,102551.53
2023-02-14T23:33:58.020Z,102545.19
2023-02-14T23:36:43.049Z,102537.03
2023-02-14T23:39:28.467Z,102528.50
2023-02-14T23:42:14.713Z,102537.44
2023-02-14T23:45:20.181Z,102535.50
2023-02-14T23:48:05.480Z,102532.91
2023-02-14T23:50:51.455Z,102525.34
2023-02-14T23:53:36.456Z,102522.63
2023-02-14T23:56:21.477Z,102518.84
2023-02-14T23:59:07.673Z,102517.19
